sensor_id;sensor_type;location;lat;lon;timestamp;temperature;humidity
18002;DHT22;9126;48.160;17.130;2022-09-09T00:02:08;20.30;63.10
18002;DHT22;9126;48.160;17.130;2022-09-09T00:04:44;20.20;63.30
18002;DHT22;9126;48.160;17.130;2022-09-09T00:07:18;20.30;63.40
18002;DHT22;9126;48.160;17.130;2022-09-09T00:09:52;20.20;63.30
18002;DHT22;9126;48.160;17.130;2022-09-09T00:12:34;20.20;63.50
18002;DHT22;9126;48.160;17.130;2022-09-09T00:15:11;20.20;63.50
18002;DHT22;9126;48.160;17.130;2022-09-09T00:17:45;20.20;63.50
18002;DHT22;9126;48.160;17.130;2022-09-09T00:20:22;20.20;63.70
18002;DHT22;9126;48.160;17.130;2022-09-09T00:22:59;20.10;63.80
18002;DHT22;9126;48.160;17.130;2022-09-09T00:25:31;20.00;64.10
18002;DHT22;9126;48.160;17.130;2022-09-09T00:28:02;19.90;64.50
18002;DHT22;9126;48.160;17.130;2022-09-09T00:30:34;19.90;64.70
18002;DHT22;9126;48.160;17.130;2022-09-09T00:33:09;19.80;65.10
18002;DHT22;9126;48.160;17.130;2022-09-09T00:35:44;19.80;65.30
18002;DHT22;9126;48.160;17.130;2022-09-09T00:38:16;19.70;66.00
18002;DHT22;9126;48.160;17.130;2022-09-09T00:40:49;19.70;65.50
18002;DHT22;9126;48.160;17.130;2022-09-09T00:43:25;19.70;65.60
18002;DHT22;9126;48.160;17.130;2022-09-09T00:46:12;19.80;65.70
18002;DHT22;9126;48.160;17.130;2022-09-09T00:48:50;19.80;65.70
18002;DHT22;9126;48.160;17.130;2022-09-09T00:51:27;19.80;65.70
18002;DHT22;9126;48.160;17.130;2022-09-09T00:54:09;19.80;65.80
18002;DHT22;9126;48.160;17.130;2022-09-09T00:56:43;19.80;65.80
18002;DHT22;9126;48.160;17.130;2022-09-09T00:59:20;19.80;65.80
18002;DHT22;9126;48.160;17.130;2022-09-09T01:01:51;19.80;65.90
18002;DHT22;9126;48.160;17.130;2022-09-09T01:04:27;19.70;65.90
18002;DHT22;9126;48.160;17.130;2022-09-09T01:07:03;19.80;65.90
18002;DHT22;9126;48.160;17.130;2022-09-09T01:09:42;19.80;66.00
18002;DHT22;9126;48.160;17.130;2022-09-09T01:12:17;19.70;65.90
18002;DHT22;9126;48.160;17.130;2022-09-09T01:14:49;19.70;66.00
18002;DHT22;9126;48.160;17.130;2022-09-09T01:17:22;19.70;66.10
18002;DHT22;9126;48.160;17.130;2022-09-09T01:20:03;19.70;66.10
18002;DHT22;9126;48.160;17.130;2022-09-09T01:22:39;19.70;66.10
18002;DHT22;9126;48.160;17.130;2022-09-09T01:25:56;19.70;66.10
18002;DHT22;9126;48.160;17.130;2022-09-09T01:28:27;19.60;66.00
18002;DHT22;9126;48.160;17.130;2022-09-09T01:30:56;19.70;65.90
18002;DHT22;9126;48.160;17.130;2022-09-09T01:33:24;19.70;65.90
18002;DHT22;9126;48.160;17.130;2022-09-09T01:35:55;19.60;65.90
18002;DHT22;9126;48.160;17.130;2022-09-09T01:38:26;19.60;66.00
18002;DHT22;9126;48.160;17.130;2022-09-09T01:40:57;19.60;66.10
18002;DHT22;9126;48.160;17.130;2022-09-09T01:43:27;19.50;66.20
18002;DHT22;9126;48.160;17.130;2022-09-09T01:45:58;19.50;66.30
18002;DHT22;9126;48.160;17.130;2022-09-09T01:48:26;19.40;66.40
18002;DHT22;9126;48.160;17.130;2022-09-09T01:50:55;19.50;66.50
18002;DHT22;9126;48.160;17.130;2022-09-09T01:53:23;19.50;66.40
18002;DHT22;9126;48.160;17.130;2022-09-09T01:56:01;19.50;66.40
18002;DHT22;9126;48.160;17.130;2022-09-09T01:58:39;19.40;66.50
18002;DHT22;9126;48.160;17.130;2022-09-09T02:01:18;19.40;66.50
18002;DHT22;9126;48.160;17.130;2022-09-09T02:03:53;19.40;66.60
18002;DHT22;9126;48.160;17.130;2022-09-09T02:06:27;19.40;66.60
18002;DHT22;9126;48.160;17.130;2022-09-09T02:08:57;19.40;66.60
18002;DHT22;9126;48.160;17.130;2022-09-09T02:11:29;19.40;66.70
18002;DHT22;9126;48.160;17.130;2022-09-09T02:14:00;19.40;66.90
18002;DHT22;9126;48.160;17.130;2022-09-09T02:16:31;19.40;67.00
18002;DHT22;9126;48.160;17.130;2022-09-09T02:19:02;19.40;67.00
18002;DHT22;9126;48.160;17.130;2022-09-09T02:21:31;19.30;67.20
18002;DHT22;9126;48.160;17.130;2022-09-09T02:24:03;19.30;67.20
18002;DHT22;9126;48.160;17.130;2022-09-09T02:26:34;19.30;67.20
18002;DHT22;9126;48.160;17.130;2022-09-09T02:29:05;19.30;67.20
18002;DHT22;9126;48.160;17.130;2022-09-09T02:31:35;19.40;67.20
18002;DHT22;9126;48.160;17.130;2022-09-09T02:34:05;19.40;67.10
18002;DHT22;9126;48.160;17.130;2022-09-09T02:36:36;19.40;67.00
18002;DHT22;9126;48.160;17.130;2022-09-09T02:39:09;19.40;67.00
18002;DHT22;9126;48.160;17.130;2022-09-09T02:41:40;19.40;66.90
18002;DHT22;9126;48.160;17.130;2022-09-09T02:44:10;19.40;66.90
18002;DHT22;9126;48.160;17.130;2022-09-09T02:47:02;19.40;67.60
18002;DHT22;9126;48.160;17.130;2022-09-09T02:49:37;19.40;66.90
18002;DHT22;9126;48.160;17.130;2022-09-09T02:54:59;19.40;67.00
18002;DHT22;9126;48.160;17.130;2022-09-09T02:57:48;19.40;66.90
18002;DHT22;9126;48.160;17.130;2022-09-09T03:00:24;19.40;66.90
18002;DHT22;9126;48.160;17.130;2022-09-09T03:02:54;19.40;67.10
18002;DHT22;9126;48.160;17.130;2022-09-09T03:05:26;19.30;67.10
18002;DHT22;9126;48.160;17.130;2022-09-09T03:08:06;19.30;67.20
18002;DHT22;9126;48.160;17.130;2022-09-09T03:10:34;19.20;67.20
18002;DHT22;9126;48.160;17.130;2022-09-09T03:13:04;19.30;67.30
18002;DHT22;9126;48.160;17.130;2022-09-09T03:15:32;19.30;67.30
18002;DHT22;9126;48.160;17.130;2022-09-09T03:18:05;19.40;67.10
18002;DHT22;9126;48.160;17.130;2022-09-09T03:20:32;19.30;67.20
18002;DHT22;9126;48.160;17.130;2022-09-09T03:23:00;19.40;67.20
18002;DHT22;9126;48.160;17.130;2022-09-09T03:25:28;19.30;67.10
18002;DHT22;9126;48.160;17.130;2022-09-09T03:27:56;19.30;67.20
18002;DHT22;9126;48.160;17.130;2022-09-09T03:30:26;19.30;67.30
18002;DHT22;9126;48.160;17.130;2022-09-09T03:32:54;19.20;67.50
18002;DHT22;9126;48.160;17.130;2022-09-09T03:35:22;19.20;67.50
18002;DHT22;9126;48.160;17.130;2022-09-09T03:37:49;19.30;67.50
18002;DHT22;9126;48.160;17.130;2022-09-09T03:40:22;19.30;67.50
18002;DHT22;9126;48.160;17.130;2022-09-09T03:42:49;19.20;67.50
18002;DHT22;9126;48.160;17.130;2022-09-09T03:45:17;19.20;67.50
18002;DHT22;9126;48.160;17.130;2022-09-09T03:47:47;19.20;67.60
18002;DHT22;9126;48.160;17.130;2022-09-09T03:50:16;19.20;67.60
18002;DHT22;9126;48.160;17.130;2022-09-09T03:52:55;19.30;67.50
18002;DHT22;9126;48.160;17.130;2022-09-09T03:55:30;19.40;67.50
18002;DHT22;9126;48.160;17.130;2022-09-09T03:57:58;19.40;67.40
18002;DHT22;9126;48.160;17.130;2022-09-09T04:00:26;19.40;67.20
18002;DHT22;9126;48.160;17.130;2022-09-09T04:02:57;19.50;67.20
18002;DHT22;9126;48.160;17.130;2022-09-09T04:05:29;19.60;67.10
18002;DHT22;9126;48.160;17.130;2022-09-09T04:08:01;19.60;66.70
18002;DHT22;9126;48.160;17.130;2022-09-09T04:10:29;19.70;66.40
18002;DHT22;9126;48.160;17.130;2022-09-09T04:12:58;19.70;66.20
18002;DHT22;9126;48.160;17.130;2022-09-09T04:15:28;19.70;66.00
18002;DHT22;9126;48.160;17.130;2022-09-09T04:18:01;19.80;65.80
18002;DHT22;9126;48.160;17.130;2022-09-09T04:20:31;19.80;65.50
18002;DHT22;9126;48.160;17.130;2022-09-09T04:23:03;19.90;65.50
18002;DHT22;9126;48.160;17.130;2022-09-09T04:25:44;20.00;65.90
18002;DHT22;9126;48.160;17.130;2022-09-09T04:28:15;19.90;65.10
18002;DHT22;9126;48.160;17.130;2022-09-09T04:30:47;20.00;65.10
18002;DHT22;9126;48.160;17.130;2022-09-09T04:33:18;19.90;65.10
18002;DHT22;9126;48.160;17.130;2022-09-09T04:35:54;19.90;65.30
18002;DHT22;9126;48.160;17.130;2022-09-09T04:38:24;19.90;65.20
18002;DHT22;9126;48.160;17.130;2022-09-09T04:41:12;20.00;65.20
18002;DHT22;9126;48.160;17.130;2022-09-09T04:43:40;20.00;65.10
18002;DHT22;9126;48.160;17.130;2022-09-09T04:46:11;20.00;65.00
18002;DHT22;9126;48.160;17.130;2022-09-09T04:48:40;20.00;65.00
18002;DHT22;9126;48.160;17.130;2022-09-09T04:51:11;20.00;65.70
18002;DHT22;9126;48.160;17.130;2022-09-09T04:53:40;19.90;65.10
18002;DHT22;9126;48.160;17.130;2022-09-09T04:56:12;19.90;65.80
18002;DHT22;9126;48.160;17.130;2022-09-09T04:58:40;19.90;65.20
18002;DHT22;9126;48.160;17.130;2022-09-09T05:01:14;20.00;65.30
18002;DHT22;9126;48.160;17.130;2022-09-09T05:03:47;20.00;65.20
18002;DHT22;9126;48.160;17.130;2022-09-09T05:06:28;20.00;65.20
18002;DHT22;9126;48.160;17.130;2022-09-09T05:09:04;20.00;65.30
18002;DHT22;9126;48.160;17.130;2022-09-09T05:11:53;20.00;65.40
18002;DHT22;9126;48.160;17.130;2022-09-09T05:15:05;19.90;65.50
18002;DHT22;9126;48.160;17.130;2022-09-09T05:17:34;19.90;65.50
18002;DHT22;9126;48.160;17.130;2022-09-09T05:20:04;20.00;65.60
18002;DHT22;9126;48.160;17.130;2022-09-09T05:22:33;20.10;65.50
18002;DHT22;9126;48.160;17.130;2022-09-09T05:25:02;20.20;65.40
18002;DHT22;9126;48.160;17.130;2022-09-09T05:27:29;20.30;65.30
18002;DHT22;9126;48.160;17.130;2022-09-09T05:29:57;20.30;65.30
18002;DHT22;9126;48.160;17.130;2022-09-09T05:32:30;20.30;65.30
18002;DHT22;9126;48.160;17.130;2022-09-09T05:35:00;20.30;65.30
18002;DHT22;9126;48.160;17.130;2022-09-09T05:37:37;20.40;65.20
18002;DHT22;9126;48.160;17.130;2022-09-09T05:40:06;20.50;65.70
18002;DHT22;9126;48.160;17.130;2022-09-09T05:42:36;20.60;65.00
18002;DHT22;9126;48.160;17.130;2022-09-09T05:45:15;20.60;64.80
18002;DHT22;9126;48.160;17.130;2022-09-09T05:47:44;20.70;64.60
18002;DHT22;9126;48.160;17.130;2022-09-09T05:50:11;20.80;64.40
18002;DHT22;9126;48.160;17.130;2022-09-09T05:52:43;20.90;64.30
18002;DHT22;9126;48.160;17.130;2022-09-09T05:55:11;20.90;64.00
18002;DHT22;9126;48.160;17.130;2022-09-09T05:57:38;21.00;63.80
18002;DHT22;9126;48.160;17.130;2022-09-09T06:00:10;21.20;64.30
18002;DHT22;9126;48.160;17.130;2022-09-09T06:02:38;21.30;63.50
18002;DHT22;9126;48.160;17.130;2022-09-09T06:05:07;21.20;63.10
18002;DHT22;9126;48.160;17.130;2022-09-09T06:07:38;21.20;63.00
18002;DHT22;9126;48.160;17.130;2022-09-09T06:10:10;21.30;62.90
18002;DHT22;9126;48.160;17.130;2022-09-09T06:12:39;21.40;62.70
18002;DHT22;9126;48.160;17.130;2022-09-09T06:15:07;21.40;62.60
18002;DHT22;9126;48.160;17.130;2022-09-09T06:17:35;21.30;62.40
18002;DHT22;9126;48.160;17.130;2022-09-09T06:20:05;21.30;62.40
18002;DHT22;9126;48.160;17.130;2022-09-09T06:22:39;21.30;62.40
18002;DHT22;9126;48.160;17.130;2022-09-09T06:25:10;21.40;62.40
18002;DHT22;9126;48.160;17.130;2022-09-09T06:27:38;21.50;62.20
18002;DHT22;9126;48.160;17.130;2022-09-09T06:30:07;21.60;62.20
18002;DHT22;9126;48.160;17.130;2022-09-09T06:32:35;21.70;62.10
18002;DHT22;9126;48.160;17.130;2022-09-09T06:35:04;21.80;62.00
18002;DHT22;9126;48.160;17.130;2022-09-09T06:37:33;21.90;61.80
18002;DHT22;9126;48.160;17.130;2022-09-09T06:40:01;22.00;61.70
18002;DHT22;9126;48.160;17.130;2022-09-09T06:42:32;22.00;61.50
18002;DHT22;9126;48.160;17.130;2022-09-09T06:45:02;22.00;61.40
18002;DHT22;9126;48.160;17.130;2022-09-09T06:47:30;22.00;61.30
18002;DHT22;9126;48.160;17.130;2022-09-09T06:50:00;22.00;61.20
18002;DHT22;9126;48.160;17.130;2022-09-09T06:52:27;22.00;61.00
18002;DHT22;9126;48.160;17.130;2022-09-09T06:54:55;22.00;60.80
18002;DHT22;9126;48.160;17.130;2022-09-09T06:57:24;22.00;60.70
18002;DHT22;9126;48.160;17.130;2022-09-09T06:59:55;22.10;60.50
18002;DHT22;9126;48.160;17.130;2022-09-09T07:02:23;22.10;60.40
18002;DHT22;9126;48.160;17.130;2022-09-09T07:04:50;22.20;60.20
18002;DHT22;9126;48.160;17.130;2022-09-09T07:07:18;22.30;60.00
18002;DHT22;9126;48.160;17.130;2022-09-09T07:09:45;22.30;59.80
18002;DHT22;9126;48.160;17.130;2022-09-09T07:12:12;22.40;59.60
18002;DHT22;9126;48.160;17.130;2022-09-09T07:14:39;22.50;59.30
18002;DHT22;9126;48.160;17.130;2022-09-09T07:17:08;22.70;59.00
18002;DHT22;9126;48.160;17.130;2022-09-09T07:19:36;22.90;58.50
18002;DHT22;9126;48.160;17.130;2022-09-09T07:22:04;23.10;58.10
18002;DHT22;9126;48.160;17.130;2022-09-09T07:24:32;23.20;57.70
18002;DHT22;9126;48.160;17.130;2022-09-09T07:27:00;23.30;57.30
18002;DHT22;9126;48.160;17.130;2022-09-09T07:29:29;23.50;56.90
18002;DHT22;9126;48.160;17.130;2022-09-09T07:31:56;23.60;57.00
18002;DHT22;9126;48.160;17.130;2022-09-09T07:34:25;23.60;56.20
18002;DHT22;9126;48.160;17.130;2022-09-09T07:36:52;23.70;56.00
18002;DHT22;9126;48.160;17.130;2022-09-09T07:39:19;23.70;55.70
18002;DHT22;9126;48.160;17.130;2022-09-09T07:41:48;23.60;55.40
18002;DHT22;9126;48.160;17.130;2022-09-09T07:44:17;23.50;55.20
18002;DHT22;9126;48.160;17.130;2022-09-09T07:46:44;23.50;55.10
18002;DHT22;9126;48.160;17.130;2022-09-09T07:49:12;23.40;55.00
18002;DHT22;9126;48.160;17.130;2022-09-09T07:51:43;23.50;55.00
18002;DHT22;9126;48.160;17.130;2022-09-09T07:54:12;23.50;54.90
18002;DHT22;9126;48.160;17.130;2022-09-09T07:56:40;23.60;54.80
18002;DHT22;9126;48.160;17.130;2022-09-09T07:59:08;23.60;54.60
18002;DHT22;9126;48.160;17.130;2022-09-09T08:01:37;23.60;54.40
18002;DHT22;9126;48.160;17.130;2022-09-09T08:04:06;23.60;54.10
18002;DHT22;9126;48.160;17.130;2022-09-09T08:06:36;23.60;53.80
18002;DHT22;9126;48.160;17.130;2022-09-09T08:09:06;23.60;53.70
18002;DHT22;9126;48.160;17.130;2022-09-09T08:11:36;23.70;53.50
18002;DHT22;9126;48.160;17.130;2022-09-09T08:14:04;23.80;53.40
18002;DHT22;9126;48.160;17.130;2022-09-09T08:16:34;23.80;53.20
18002;DHT22;9126;48.160;17.130;2022-09-09T08:19:03;23.90;52.90
18002;DHT22;9126;48.160;17.130;2022-09-09T08:21:34;24.00;52.60
18002;DHT22;9126;48.160;17.130;2022-09-09T08:24:09;24.00;52.40
18002;DHT22;9126;48.160;17.130;2022-09-09T08:26:39;24.10;52.20
18002;DHT22;9126;48.160;17.130;2022-09-09T08:29:08;24.30;52.00
18002;DHT22;9126;48.160;17.130;2022-09-09T08:31:37;24.40;51.60
18002;DHT22;9126;48.160;17.130;2022-09-09T08:34:08;24.60;51.10
18002;DHT22;9126;48.160;17.130;2022-09-09T08:36:37;24.70;50.60
18002;DHT22;9126;48.160;17.130;2022-09-09T08:39:10;24.90;50.30
18002;DHT22;9126;48.160;17.130;2022-09-09T08:44:46;25.30;49.30
18002;DHT22;9126;48.160;17.130;2022-09-09T08:47:24;25.50;49.10
18002;DHT22;9126;48.160;17.130;2022-09-09T08:50:05;25.70;48.90
18002;DHT22;9126;48.160;17.130;2022-09-09T08:52:39;25.90;48.50
18002;DHT22;9126;48.160;17.130;2022-09-09T08:55:23;26.00;48.10
18002;DHT22;9126;48.160;17.130;2022-09-09T08:57:54;26.20;47.90
18002;DHT22;9126;48.160;17.130;2022-09-09T09:00:25;26.50;47.60
18002;DHT22;9126;48.160;17.130;2022-09-09T09:02:59;26.70;46.90
18002;DHT22;9126;48.160;17.130;2022-09-09T09:05:35;27.10;46.50
18002;DHT22;9126;48.160;17.130;2022-09-09T09:08:15;27.30;45.90
18002;DHT22;9126;48.160;17.130;2022-09-09T09:10:48;27.40;45.20
18002;DHT22;9126;48.160;17.130;2022-09-09T09:13:19;27.40;44.90
18002;DHT22;9126;48.160;17.130;2022-09-09T09:15:53;27.40;44.70
18002;DHT22;9126;48.160;17.130;2022-09-09T09:18:23;27.40;44.60
18002;DHT22;9126;48.160;17.130;2022-09-09T09:21:02;27.50;44.50
18002;DHT22;9126;48.160;17.130;2022-09-09T09:23:38;27.50;44.30
18002;DHT22;9126;48.160;17.130;2022-09-09T09:26:13;27.60;44.20
18002;DHT22;9126;48.160;17.130;2022-09-09T09:28:40;27.60;44.10
18002;DHT22;9126;48.160;17.130;2022-09-09T09:31:10;27.40;44.10
18002;DHT22;9126;48.160;17.130;2022-09-09T09:33:45;27.30;44.50
18002;DHT22;9126;48.160;17.130;2022-09-09T09:36:16;27.20;45.00
18002;DHT22;9126;48.160;17.130;2022-09-09T09:38:55;27.10;45.30
18002;DHT22;9126;48.160;17.130;2022-09-09T09:41:32;26.90;45.40
18002;DHT22;9126;48.160;17.130;2022-09-09T09:44:02;26.70;45.70
18002;DHT22;9126;48.160;17.130;2022-09-09T09:46:30;26.70;45.90
18002;DHT22;9126;48.160;17.130;2022-09-09T09:48:59;26.70;45.90
18002;DHT22;9126;48.160;17.130;2022-09-09T09:51:27;26.70;45.80
18002;DHT22;9126;48.160;17.130;2022-09-09T09:54:06;26.50;45.90
18002;DHT22;9126;48.160;17.130;2022-09-09T09:56:36;26.50;45.80
18002;DHT22;9126;48.160;17.130;2022-09-09T09:59:03;26.60;45.80
18002;DHT22;9126;48.160;17.130;2022-09-09T10:01:32;26.60;45.40
18002;DHT22;9126;48.160;17.130;2022-09-09T10:04:02;26.60;44.80
18002;DHT22;9126;48.160;17.130;2022-09-09T10:06:30;26.60;44.50
18002;DHT22;9126;48.160;17.130;2022-09-09T10:08:59;26.40;44.20
18002;DHT22;9126;48.160;17.130;2022-09-09T10:11:40;26.50;44.10
18002;DHT22;9126;48.160;17.130;2022-09-09T10:14:18;26.50;43.90
18002;DHT22;9126;48.160;17.130;2022-09-09T10:16:57;26.60;43.80
18002;DHT22;9126;48.160;17.130;2022-09-09T10:19:30;26.60;43.40
18002;DHT22;9126;48.160;17.130;2022-09-09T10:22:11;26.70;43.20
18002;DHT22;9126;48.160;17.130;2022-09-09T10:25:14;26.70;42.60
18002;DHT22;9126;48.160;17.130;2022-09-09T10:28:00;26.90;41.80
18002;DHT22;9126;48.160;17.130;2022-09-09T10:30:39;27.20;41.30
18002;DHT22;9126;48.160;17.130;2022-09-09T10:33:10;27.30;40.70
18002;DHT22;9126;48.160;17.130;2022-09-09T10:35:44;27.60;40.40
18002;DHT22;9126;48.160;17.130;2022-09-09T10:38:16;27.80;40.00
18002;DHT22;9126;48.160;17.130;2022-09-09T10:41:00;28.00;39.80
18002;DHT22;9126;48.160;17.130;2022-09-09T10:43:46;28.10;39.40
18002;DHT22;9126;48.160;17.130;2022-09-09T10:46:25;28.30;39.20
18002;DHT22;9126;48.160;17.130;2022-09-09T10:49:06;28.40;39.00
18002;DHT22;9126;48.160;17.130;2022-09-09T10:51:43;28.80;38.80
18002;DHT22;9126;48.160;17.130;2022-09-09T10:54:27;29.10;38.60
18002;DHT22;9126;48.160;17.130;2022-09-09T10:57:02;29.20;38.00
18002;DHT22;9126;48.160;17.130;2022-09-09T10:59:36;29.30;37.70
18002;DHT22;9126;48.160;17.130;2022-09-09T11:02:15;29.30;37.50
18002;DHT22;9126;48.160;17.130;2022-09-09T11:04:49;29.20;37.30
18002;DHT22;9126;48.160;17.130;2022-09-09T11:07:26;29.10;37.40
18002;DHT22;9126;48.160;17.130;2022-09-09T11:09:59;28.70;37.40
18002;DHT22;9126;48.160;17.130;2022-09-09T11:12:30;28.50;37.60
18002;DHT22;9126;48.160;17.130;2022-09-09T11:15:03;28.40;37.70
18002;DHT22;9126;48.160;17.130;2022-09-09T11:17:36;28.30;37.80
18002;DHT22;9126;48.160;17.130;2022-09-09T11:20:11;28.10;37.90
18002;DHT22;9126;48.160;17.130;2022-09-09T11:22:45;28.00;38.00
18002;DHT22;9126;48.160;17.130;2022-09-09T11:25:16;28.10;38.00
18002;DHT22;9126;48.160;17.130;2022-09-09T11:28:05;28.30;37.80
18002;DHT22;9126;48.160;17.130;2022-09-09T11:30:46;28.30;37.20
18002;DHT22;9126;48.160;17.130;2022-09-09T11:33:52;28.20;36.60
18002;DHT22;9126;48.160;17.130;2022-09-09T11:39:44;28.00;36.50
18002;DHT22;9126;48.160;17.130;2022-09-09T11:42:18;27.90;36.50
18002;DHT22;9126;48.160;17.130;2022-09-09T11:44:46;28.20;36.60
18002;DHT22;9126;48.160;17.130;2022-09-09T11:47:22;28.50;36.30
18002;DHT22;9126;48.160;17.130;2022-09-09T11:49:54;29.10;35.80
18002;DHT22;9126;48.160;17.130;2022-09-09T11:52:23;29.60;35.40
18002;DHT22;9126;48.160;17.130;2022-09-09T11:54:57;30.00;34.60
18002;DHT22;9126;48.160;17.130;2022-09-09T11:57:57;30.30;33.60
18002;DHT22;9126;48.160;17.130;2022-09-09T12:00:31;30.60;32.80
18002;DHT22;9126;48.160;17.130;2022-09-09T12:03:01;30.70;32.10
18002;DHT22;9126;48.160;17.130;2022-09-09T12:05:38;30.70;31.80
18002;DHT22;9126;48.160;17.130;2022-09-09T12:08:07;30.60;31.50
18002;DHT22;9126;48.160;17.130;2022-09-09T12:10:39;30.70;31.60
18002;DHT22;9126;48.160;17.130;2022-09-09T12:13:16;30.90;31.50
18002;DHT22;9126;48.160;17.130;2022-09-09T12:15:48;30.80;31.20
18002;DHT22;9126;48.160;17.130;2022-09-09T12:18:23;30.60;31.10
18002;DHT22;9126;48.160;17.130;2022-09-09T12:20:57;30.50;31.00
18002;DHT22;9126;48.160;17.130;2022-09-09T12:23:32;30.10;30.80
18002;DHT22;9126;48.160;17.130;2022-09-09T12:26:12;29.90;31.20
18002;DHT22;9126;48.160;17.130;2022-09-09T12:28:52;29.70;31.40
18002;DHT22;9126;48.160;17.130;2022-09-09T12:31:25;29.70;31.60
18002;DHT22;9126;48.160;17.130;2022-09-09T12:34:02;29.40;31.50
18002;DHT22;9126;48.160;17.130;2022-09-09T12:36:32;29.10;31.80
18002;DHT22;9126;48.160;17.130;2022-09-09T12:39:16;28.80;31.80
18002;DHT22;9126;48.160;17.130;2022-09-09T12:41:51;28.70;31.90
18002;DHT22;9126;48.160;17.130;2022-09-09T12:44:23;28.80;32.00
18002;DHT22;9126;48.160;17.130;2022-09-09T12:46:51;29.00;31.90
18002;DHT22;9126;48.160;17.130;2022-09-09T12:49:32;29.10;31.70
18002;DHT22;9126;48.160;17.130;2022-09-09T12:52:04;29.00;31.30
18002;DHT22;9126;48.160;17.130;2022-09-09T12:54:34;29.10;31.30
18002;DHT22;9126;48.160;17.130;2022-09-09T12:57:03;29.30;31.20
18002;DHT22;9126;48.160;17.130;2022-09-09T12:59:37;29.50;31.10
18002;DHT22;9126;48.160;17.130;2022-09-09T13:02:16;29.50;30.90
18002;DHT22;9126;48.160;17.130;2022-09-09T13:04:46;29.60;31.00
18002;DHT22;9126;48.160;17.130;2022-09-09T13:07:18;29.50;30.90
18002;DHT22;9126;48.160;17.130;2022-09-09T13:09:47;29.60;30.90
18002;DHT22;9126;48.160;17.130;2022-09-09T13:12:18;30.00;30.80
18002;DHT22;9126;48.160;17.130;2022-09-09T13:14:48;30.00;30.20
18002;DHT22;9126;48.160;17.130;2022-09-09T13:17:20;29.80;30.30
18002;DHT22;9126;48.160;17.130;2022-09-09T13:19:50;29.50;30.60
18002;DHT22;9126;48.160;17.130;2022-09-09T13:22:24;29.60;30.80
18002;DHT22;9126;48.160;17.130;2022-09-09T13:25:04;29.80;30.70
18002;DHT22;9126;48.160;17.130;2022-09-09T13:27:33;30.20;30.50
18002;DHT22;9126;48.160;17.130;2022-09-09T13:30:00;30.50;30.30
18002;DHT22;9126;48.160;17.130;2022-09-09T13:32:28;30.60;30.00
18002;DHT22;9126;48.160;17.130;2022-09-09T13:35:00;30.70;29.90
18002;DHT22;9126;48.160;17.130;2022-09-09T13:37:32;30.90;29.90
18002;DHT22;9126;48.160;17.130;2022-09-09T13:40:01;30.90;29.80
18002;DHT22;9126;48.160;17.130;2022-09-09T13:42:30;30.70;29.50
18002;DHT22;9126;48.160;17.130;2022-09-09T13:44:59;30.60;29.40
18002;DHT22;9126;48.160;17.130;2022-09-09T13:47:32;30.70;29.90
18002;DHT22;9126;48.160;17.130;2022-09-09T13:50:18;30.80;29.40
18002;DHT22;9126;48.160;17.130;2022-09-09T13:52:46;31.00;29.40
18002;DHT22;9126;48.160;17.130;2022-09-09T13:55:14;31.30;29.40
18002;DHT22;9126;48.160;17.130;2022-09-09T13:57:50;31.40;29.30
18002;DHT22;9126;48.160;17.130;2022-09-09T14:00:17;30.90;29.30
18002;DHT22;9126;48.160;17.130;2022-09-09T14:02:45;30.30;29.60
18002;DHT22;9126;48.160;17.130;2022-09-09T14:05:13;29.90;30.00
18002;DHT22;9126;48.160;17.130;2022-09-09T14:07:41;29.90;30.30
18002;DHT22;9126;48.160;17.130;2022-09-09T14:10:09;30.00;30.30
18002;DHT22;9126;48.160;17.130;2022-09-09T14:12:36;30.00;30.20
18002;DHT22;9126;48.160;17.130;2022-09-09T14:15:04;29.70;30.20
18002;DHT22;9126;48.160;17.130;2022-09-09T14:17:31;29.50;30.30
18002;DHT22;9126;48.160;17.130;2022-09-09T14:20:00;29.60;30.30
18002;DHT22;9126;48.160;17.130;2022-09-09T14:22:29;29.60;30.20
18002;DHT22;9126;48.160;17.130;2022-09-09T14:24:56;29.60;30.30
18002;DHT22;9126;48.160;17.130;2022-09-09T14:27:23;29.50;30.70
18002;DHT22;9126;48.160;17.130;2022-09-09T14:29:51;29.20;30.90
18002;DHT22;9126;48.160;17.130;2022-09-09T14:32:18;29.30;31.10
18002;DHT22;9126;48.160;17.130;2022-09-09T14:34:45;29.50;31.20
18002;DHT22;9126;48.160;17.130;2022-09-09T14:37:15;29.40;31.20
18002;DHT22;9126;48.160;17.130;2022-09-09T14:39:43;29.10;32.00
18002;DHT22;9126;48.160;17.130;2022-09-09T14:42:13;28.90;31.80
18002;DHT22;9126;48.160;17.130;2022-09-09T14:44:40;28.70;32.20
18002;DHT22;9126;48.160;17.130;2022-09-09T14:47:07;28.80;32.50
18002;DHT22;9126;48.160;17.130;2022-09-09T14:49:35;28.90;32.60
18002;DHT22;9126;48.160;17.130;2022-09-09T14:52:03;29.10;32.60
18002;DHT22;9126;48.160;17.130;2022-09-09T14:54:31;29.10;32.80
18002;DHT22;9126;48.160;17.130;2022-09-09T14:56:59;28.70;33.30
18002;DHT22;9126;48.160;17.130;2022-09-09T14:59:26;28.50;33.70
18002;DHT22;9126;48.160;17.130;2022-09-09T15:01:53;28.40;34.70
18002;DHT22;9126;48.160;17.130;2022-09-09T15:04:20;28.10;34.40
18002;DHT22;9126;48.160;17.130;2022-09-09T15:06:47;28.00;34.70
18002;DHT22;9126;48.160;17.130;2022-09-09T15:09:16;27.90;34.90
18002;DHT22;9126;48.160;17.130;2022-09-09T15:11:43;27.90;35.00
18002;DHT22;9126;48.160;17.130;2022-09-09T15:14:14;27.90;35.00
18002;DHT22;9126;48.160;17.130;2022-09-09T15:16:41;27.90;35.20
18002;DHT22;9126;48.160;17.130;2022-09-09T15:19:08;27.90;35.40
18002;DHT22;9126;48.160;17.130;2022-09-09T15:21:36;27.90;35.50
18002;DHT22;9126;48.160;17.130;2022-09-09T15:24:05;27.90;35.80
18002;DHT22;9126;48.160;17.130;2022-09-09T15:26:34;27.70;36.10
18002;DHT22;9126;48.160;17.130;2022-09-09T15:29:04;27.70;36.40
18002;DHT22;9126;48.160;17.130;2022-09-09T15:31:32;27.60;36.40
18002;DHT22;9126;48.160;17.130;2022-09-09T15:34:01;27.60;36.60
18002;DHT22;9126;48.160;17.130;2022-09-09T15:36:29;27.60;36.80
18002;DHT22;9126;48.160;17.130;2022-09-09T15:38:57;27.70;37.00
18002;DHT22;9126;48.160;17.130;2022-09-09T15:41:26;27.50;37.20
18002;DHT22;9126;48.160;17.130;2022-09-09T15:43:55;27.30;37.70
18002;DHT22;9126;48.160;17.130;2022-09-09T15:46:29;27.00;38.30
18002;DHT22;9126;48.160;17.130;2022-09-09T15:48:58;26.80;38.80
18002;DHT22;9126;48.160;17.130;2022-09-09T15:51:29;26.70;39.30
18002;DHT22;9126;48.160;17.130;2022-09-09T15:53:57;26.80;39.50
18002;DHT22;9126;48.160;17.130;2022-09-09T15:56:26;27.00;39.50
18002;DHT22;9126;48.160;17.130;2022-09-09T15:58:57;26.90;39.60
18002;DHT22;9126;48.160;17.130;2022-09-09T16:01:45;26.80;39.60
18002;DHT22;9126;48.160;17.130;2022-09-09T16:04:13;26.80;39.90
18002;DHT22;9126;48.160;17.130;2022-09-09T16:06:52;26.70;40.00
18002;DHT22;9126;48.160;17.130;2022-09-09T16:09:19;26.50;40.10
18002;DHT22;9126;48.160;17.130;2022-09-09T16:11:47;26.50;40.30